createdAt,value
2018-09-24T00:02:26.097Z,10.10
2018-09-24T00:04:54.623Z,10.20
2018-09-24T00:07:22.923Z,10.20
2018-09-24T00:09:51.351Z,10.20
2018-09-24T00:12:19.760Z,10.10
2018-09-24T00:14:48.388Z,10.00
2018-09-24T00:17:16.906Z,10.00
2018-09-24T00:19:45.432Z,10.00
2018-09-24T00:22:13.774Z,10.10
2018-09-24T00:24:42.324Z,10.10
2018-09-24T00:27:10.763Z,10.00
2018-09-24T00:29:39.321Z,10.10
2018-09-24T00:32:07.615Z,10.10
2018-09-24T00:34:36.164Z,10.00
2018-09-24T00:37:05.046Z,9.90
2018-09-24T00:39:33.738Z,9.90
2018-09-24T00:42:02.248Z,9.90
2018-09-24T00:44:30.765Z,9.80
2018-09-24T00:46:59.663Z,9.80
2018-09-24T00:49:27.923Z,9.80
2018-09-24T00:51:56.392Z,9.70
2018-09-24T00:54:24.864Z,9.70
2018-09-24T00:56:53.320Z,9.70
2018-09-24T00:59:22.204Z,9.60
2018-09-24T01:01:50.746Z,9.50
2018-09-24T01:04:19.294Z,9.50
2018-09-24T01:06:48.024Z,9.40
2018-09-24T01:09:16.379Z,9.30
2018-09-24T01:11:44.904Z,9.20
2018-09-24T01:14:13.307Z,9.20
2018-09-24T01:16:41.579Z,9.10
2018-09-24T01:19:09.890Z,9.10
2018-09-24T01:21:38.600Z,9.00
2018-09-24T01:24:06.967Z,9.00
2018-09-24T01:26:35.491Z,8.90
2018-09-24T01:29:04.119Z,9.00
2018-09-24T01:31:32.392Z,9.00
2018-09-24T01:34:00.860Z,9.00
2018-09-24T01:36:29.786Z,9.10
2018-09-24T01:38:58.200Z,9.20
2018-09-24T01:41:26.473Z,9.20
2018-09-24T01:43:54.795Z,9.20
2018-09-24T01:46:23.155Z,9.10
2018-09-24T01:48:51.439Z,9.10
2018-09-24T01:51:20.310Z,9.10
2018-09-24T01:53:48.770Z,9.10
2018-09-24T01:56:17.179Z,9.10
2018-09-24T01:58:45.720Z,9.10
2018-09-24T02:01:13.986Z,9.10
2018-09-24T02:03:42.271Z,9.00
2018-09-24T02:06:10.929Z,8.90
2018-09-24T02:08:43.844Z,8.90
2018-09-24T02:11:12.974Z,8.90
2018-09-24T02:13:49.565Z,8.90
2018-09-24T02:16:18.572Z,8.90
2018-09-24T02:18:47.800Z,8.90
2018-09-24T02:21:16.637Z,8.90
2018-09-24T02:23:45.014Z,8.90
2018-09-24T02:26:13.915Z,8.90
2018-09-24T02:28:42.168Z,8.90
2018-09-24T02:31:10.777Z,8.90
2018-09-24T02:33:39.262Z,8.90
2018-09-24T02:36:07.897Z,8.90
2018-09-24T02:38:39.383Z,8.90
2018-09-24T02:41:08.442Z,8.90
2018-09-24T02:43:37.219Z,8.80
2018-09-24T02:46:05.862Z,8.80
2018-09-24T02:48:34.278Z,8.80
2018-09-24T02:51:02.902Z,8.70
2018-09-24T02:53:39.540Z,8.70
2018-09-24T02:56:08.556Z,8.60
2018-09-24T02:58:36.897Z,8.70
2018-09-24T03:01:05.682Z,8.60
2018-09-24T03:03:34.479Z,8.60
2018-09-24T03:06:02.936Z,8.60
2018-09-24T03:08:31.518Z,8.60
2018-09-24T03:11:05.189Z,8.60
2018-09-24T03:13:33.531Z,8.60
2018-09-24T03:16:01.828Z,8.60
2018-09-24T03:18:30.500Z,8.50
2018-09-24T03:20:59.076Z,8.50
2018-09-24T03:23:27.597Z,8.50
2018-09-24T03:25:55.996Z,8.40
2018-09-24T03:28:24.630Z,8.40
2018-09-24T03:30:52.970Z,8.40
2018-09-24T03:33:21.211Z,8.40
2018-09-24T03:35:49.513Z,8.40
2018-09-24T03:38:17.772Z,8.30
2018-09-24T03:40:46.232Z,8.20
2018-09-24T03:43:14.788Z,8.20
2018-09-24T03:45:43.299Z,8.20
2018-09-24T03:48:11.856Z,8.20
2018-09-24T03:50:40.352Z,8.20
2018-09-24T03:53:08.945Z,8.20
2018-09-24T03:55:37.693Z,8.10
2018-09-24T03:58:06.130Z,8.20
2018-09-24T04:00:34.676Z,8.10
2018-09-24T04:03:03.246Z,8.20
2018-09-24T04:05:36.908Z,8.20
2018-09-24T04:08:10.621Z,8.20
2018-09-24T04:10:44.731Z,8.10
2018-09-24T04:13:18.715Z,8.00
2018-09-24T04:15:52.956Z,8.00
2018-09-24T04:18:27.083Z,7.90
2018-09-24T04:21:00.801Z,7.80
2018-09-24T04:23:34.467Z,7.80
2018-09-24T04:26:08.317Z,7.80
2018-09-24T04:28:41.949Z,7.70
2018-09-24T04:31:15.852Z,7.60
2018-09-24T04:33:49.667Z,7.50
2018-09-24T04:36:23.440Z,7.50
2018-09-24T04:38:57.044Z,7.50
2018-09-24T04:41:30.784Z,7.50
2018-09-24T04:44:04.824Z,7.50
2018-09-24T04:46:39.175Z,7.40
2018-09-24T04:49:13.002Z,7.40
2018-09-24T04:51:46.847Z,7.50
2018-09-24T04:54:20.812Z,7.60
2018-09-24T04:56:54.581Z,7.70
2018-09-24T04:59:28.506Z,7.80
2018-09-24T05:02:02.361Z,7.90
2018-09-24T05:04:36.052Z,7.80
2018-09-24T05:07:09.659Z,7.80
2018-09-24T05:09:43.346Z,7.70
2018-09-24T05:12:17.478Z,7.60
2018-09-24T05:14:51.378Z,7.50
2018-09-24T05:17:25.522Z,7.50
2018-09-24T05:19:59.691Z,7.40
2018-09-24T05:22:33.994Z,7.40
2018-09-24T05:25:07.963Z,7.50
2018-09-24T05:27:41.632Z,7.60
2018-09-24T05:30:15.471Z,7.60
2018-09-24T05:32:49.194Z,7.70
2018-09-24T05:35:22.875Z,7.80
2018-09-24T05:37:56.848Z,7.90
2018-09-24T05:40:30.632Z,7.90
2018-09-24T05:43:04.344Z,8.10
2018-09-24T05:45:37.934Z,8.10
2018-09-24T05:48:11.660Z,8.00
2018-09-24T05:50:45.315Z,8.00
2018-09-24T05:53:18.920Z,8.00
2018-09-24T05:55:52.375Z,8.00
2018-09-24T05:58:26.050Z,8.00
2018-09-24T06:01:00.004Z,8.10
2018-09-24T06:03:33.698Z,8.20
2018-09-24T06:06:07.612Z,8.30
2018-09-24T06:08:41.603Z,8.40
2018-09-24T06:11:15.492Z,8.40
2018-09-24T06:13:49.194Z,8.40
2018-09-24T06:16:22.728Z,8.50
2018-09-24T06:18:56.378Z,8.40
2018-09-24T06:21:30.440Z,8.40
2018-09-24T06:24:04.184Z,8.40
2018-09-24T06:26:38.063Z,8.30
2018-09-24T06:29:11.783Z,8.30
2018-09-24T06:31:45.370Z,8.50
2018-09-24T06:34:19.473Z,8.60
2018-09-24T06:36:53.281Z,9.10
2018-09-24T06:39:27.296Z,9.70
2018-09-24T06:42:00.899Z,9.70
2018-09-24T06:44:34.556Z,9.40
2018-09-24T06:47:08.156Z,9.10
2018-09-24T06:49:41.969Z,9.00
2018-09-24T06:52:15.835Z,8.90
2018-09-24T06:54:49.496Z,8.90
2018-09-24T06:57:23.217Z,8.80
2018-09-24T06:59:57.224Z,8.70
2018-09-24T07:02:30.981Z,9.00
2018-09-24T07:05:05.109Z,9.90
2018-09-24T07:07:39.156Z,10.90
2018-09-24T07:10:12.835Z,11.80
2018-09-24T07:12:46.520Z,11.40
2018-09-24T07:15:20.127Z,10.80
2018-09-24T07:17:54.280Z,10.30
2018-09-24T07:20:28.217Z,10.00
2018-09-24T07:23:02.072Z,10.20
2018-09-24T07:25:36.047Z,10.00
2018-09-24T07:28:09.793Z,10.40
2018-09-24T07:30:43.795Z,10.70
2018-09-24T07:33:17.652Z,10.40
2018-09-24T07:35:51.759Z,11.10
2018-09-24T07:38:25.397Z,11.40
2018-09-24T07:40:59.372Z,11.70
2018-09-24T07:43:32.848Z,11.90
2018-09-24T07:46:06.786Z,11.40
2018-09-24T07:48:40.858Z,11.90
2018-09-24T07:51:14.706Z,12.30
2018-09-24T07:53:48.272Z,12.30
2018-09-24T07:56:22.212Z,11.70
2018-09-24T07:58:55.853Z,11.30
2018-09-24T08:01:29.649Z,11.00
2018-09-24T08:04:03.303Z,11.30
2018-09-24T08:06:37.052Z,11.50
2018-09-24T08:09:12.315Z,12.10
2018-09-24T08:11:46.100Z,11.80
2018-09-24T08:14:19.712Z,12.90
2018-09-24T08:16:53.288Z,13.80
2018-09-24T08:19:27.162Z,13.00
2018-09-24T08:22:00.970Z,12.20
2018-09-24T08:24:34.805Z,11.70
2018-09-24T08:27:08.851Z,11.80
2018-09-24T08:29:42.432Z,11.30
2018-09-24T08:32:16.320Z,11.00
2018-09-24T08:34:50.105Z,10.80
2018-09-24T08:37:24.084Z,10.60
2018-09-24T08:39:57.744Z,12.10
2018-09-24T08:42:31.714Z,12.60
2018-09-24T08:45:05.383Z,13.30
2018-09-24T08:47:39.264Z,12.50
2018-09-24T08:50:13.032Z,12.30
2018-09-24T08:52:47.025Z,13.30
2018-09-24T08:55:21.088Z,14.40
2018-09-24T08:57:54.836Z,15.40
2018-09-24T09:00:28.769Z,14.90
2018-09-24T09:03:02.427Z,13.90
2018-09-24T09:05:36.131Z,12.70
2018-09-24T09:08:09.846Z,14.30
2018-09-24T09:10:43.882Z,14.60
2018-09-24T09:13:17.627Z,14.00
2018-09-24T09:15:51.568Z,13.60
2018-09-24T09:18:25.369Z,13.40
2018-09-24T09:20:59.371Z,13.70
2018-09-24T09:23:33.071Z,14.60
2018-09-24T09:26:06.509Z,14.30
2018-09-24T09:28:40.463Z,14.20
2018-09-24T09:31:14.180Z,15.70
2018-09-24T09:33:47.943Z,16.40
2018-09-24T09:36:21.787Z,16.50
2018-09-24T09:38:55.823Z,15.80
2018-09-24T09:41:29.620Z,15.90
2018-09-24T09:44:03.284Z,17.10
2018-09-24T09:46:36.998Z,17.60
2018-09-24T09:49:11.486Z,16.60
2018-09-24T09:51:45.297Z,15.80
2018-09-24T09:54:18.846Z,16.90
2018-09-24T09:56:52.769Z,18.80
2018-09-24T09:59:26.608Z,17.80
2018-09-24T10:02:00.343Z,15.80
2018-09-24T10:04:34.171Z,14.70
2018-09-24T10:07:08.596Z,14.20
2018-09-24T10:09:42.133Z,13.80
2018-09-24T10:12:16.146Z,13.30
2018-09-24T10:14:51.237Z,12.60
2018-09-24T10:17:25.354Z,12.10
2018-09-24T10:19:59.295Z,12.00
2018-09-24T10:22:33.148Z,13.70
2018-09-24T10:25:06.931Z,15.90
2018-09-24T10:27:40.789Z,16.50
2018-09-24T10:30:14.536Z,17.30
2018-09-24T10:32:48.494Z,18.20
2018-09-24T10:35:22.610Z,18.40
2018-09-24T10:37:56.567Z,17.00
2018-09-24T10:40:30.844Z,15.50
2018-09-24T10:43:04.549Z,14.40
2018-09-24T10:45:38.516Z,13.70
2018-09-24T10:48:12.351Z,15.20
2018-09-24T10:50:45.982Z,17.00
2018-09-24T10:53:19.911Z,18.30
2018-09-24T10:55:54.009Z,19.20
2018-09-24T10:58:27.739Z,17.50
2018-09-24T11:01:01.293Z,15.90
2018-09-24T11:03:35.181Z,16.40
2018-09-24T11:06:09.234Z,17.70
2018-09-24T11:08:42.901Z,18.70
2018-09-24T11:11:16.771Z,19.40
2018-09-24T11:13:50.713Z,20.70
2018-09-24T11:16:24.687Z,19.20
2018-09-24T11:18:58.992Z,19.30
2018-09-24T11:21:33.039Z,18.70
2018-09-24T11:24:06.649Z,17.50
2018-09-24T11:26:40.603Z,16.60
2018-09-24T11:29:14.438Z,16.50
2018-09-24T11:31:48.313Z,18.30
2018-09-24T11:34:22.186Z,18.60
2018-09-24T11:36:55.986Z,17.30
2018-09-24T11:39:29.765Z,16.30
2018-09-24T11:42:04.241Z,18.10
2018-09-24T11:44:38.137Z,18.50
2018-09-24T11:47:12.324Z,19.10
2018-09-24T11:49:46.080Z,17.90
2018-09-24T11:52:20.405Z,16.30
2018-09-24T11:54:54.606Z,15.30
2018-09-24T11:57:28.396Z,14.50
2018-09-24T12:00:02.399Z,13.90
2018-09-24T12:02:36.183Z,13.70
2018-09-24T12:05:09.904Z,13.80
2018-09-24T12:07:43.711Z,14.40
2018-09-24T12:10:17.632Z,15.60
2018-09-24T12:12:51.500Z,16.50
2018-09-24T12:15:25.468Z,15.80
2018-09-24T12:17:59.500Z,14.90
2018-09-24T12:20:33.587Z,16.00
2018-09-24T12:23:07.459Z,17.10
2018-09-24T12:25:41.435Z,18.20
2018-09-24T12:28:15.043Z,20.00
2018-09-24T12:30:48.956Z,19.80
2018-09-24T12:33:22.571Z,20.30
2018-09-24T12:35:56.352Z,21.40
2018-09-24T12:38:29.911Z,21.20
2018-09-24T12:41:03.720Z,21.00
2018-09-24T12:43:37.457Z,20.00
2018-09-24T12:46:11.489Z,17.80
2018-09-24T12:48:45.430Z,17.20
2018-09-24T12:51:19.096Z,18.40
2018-09-24T12:53:52.956Z,19.60
2018-09-24T12:56:27.103Z,19.90
2018-09-24T12:59:00.687Z,20.60
2018-09-24T13:01:34.714Z,19.10
2018-09-24T13:04:08.738Z,17.30
2018-09-24T13:06:42.813Z,15.90
2018-09-24T13:09:16.780Z,15.30
2018-09-24T13:11:50.271Z,17.10
2018-09-24T13:14:24.220Z,18.50
2018-09-24T13:16:57.789Z,18.20
2018-09-24T13:19:31.534Z,17.20
2018-09-24T13:22:05.267Z,16.40
2018-09-24T13:24:39.016Z,16.50
2018-09-24T13:27:13.302Z,16.20
2018-09-24T13:29:46.829Z,15.30
2018-09-24T13:32:20.675Z,15.50
2018-09-24T13:34:54.690Z,17.10
2018-09-24T13:37:28.679Z,17.40
2018-09-24T13:40:02.412Z,17.10
2018-09-24T13:42:36.013Z,17.10
2018-09-24T13:45:10.001Z,16.80
2018-09-24T13:47:43.848Z,17.70
2018-09-24T13:50:17.589Z,19.10
2018-09-24T13:52:51.224Z,20.60
2018-09-24T13:55:25.023Z,21.50
2018-09-24T13:57:58.530Z,21.50
2018-09-24T14:00:32.147Z,20.10
2018-09-24T14:03:05.646Z,17.70
2018-09-24T14:05:39.603Z,16.30
2018-09-24T14:08:13.822Z,15.30
2018-09-24T14:10:47.758Z,14.40
2018-09-24T14:13:21.772Z,14.10
2018-09-24T14:15:55.553Z,13.80
2018-09-24T14:18:29.354Z,13.80
2018-09-24T14:21:03.132Z,13.70
2018-09-24T14:23:36.865Z,13.50
2018-09-24T14:26:10.768Z,13.30
2018-09-24T14:28:44.394Z,13.10
2018-09-24T14:31:18.217Z,13.00
2018-09-24T14:33:52.054Z,14.20
2018-09-24T14:36:25.738Z,15.90
2018-09-24T14:38:59.450Z,17.50
2018-09-24T14:41:33.351Z,18.60
2018-09-24T14:44:07.752Z,18.90
2018-09-24T14:46:41.717Z,19.10
2018-09-24T14:49:15.537Z,20.00
2018-09-24T14:51:49.124Z,19.80
2018-09-24T14:54:23.071Z,19.90
2018-09-24T14:56:56.820Z,20.30
2018-09-24T14:59:30.715Z,20.10
2018-09-24T15:02:04.824Z,19.60
2018-09-24T15:04:38.585Z,19.20
2018-09-24T15:07:12.811Z,19.20
2018-09-24T15:09:46.760Z,19.40
2018-09-24T15:12:20.577Z,19.20
2018-09-24T15:14:54.516Z,19.30
2018-09-24T15:17:29.250Z,18.70
2018-09-24T15:20:02.939Z,18.20
2018-09-24T15:22:36.600Z,17.40
2018-09-24T15:25:10.310Z,16.50
2018-09-24T15:27:44.086Z,15.80
2018-09-24T15:30:17.992Z,15.10
2018-09-24T15:32:51.692Z,14.40
2018-09-24T15:35:25.297Z,13.80
2018-09-24T15:37:59.036Z,13.40
2018-09-24T15:40:32.740Z,13.10
2018-09-24T15:43:06.406Z,12.90
2018-09-24T15:45:40.273Z,12.80
2018-09-24T15:48:14.204Z,12.60
2018-09-24T15:50:47.763Z,12.50
2018-09-24T15:53:21.716Z,12.50
2018-09-24T15:55:55.401Z,12.50
2018-09-24T15:58:29.456Z,12.50
2018-09-24T16:01:03.167Z,12.40
2018-09-24T16:03:36.761Z,12.40
2018-09-24T16:06:10.733Z,12.20
2018-09-24T16:08:44.362Z,12.10
2018-09-24T16:11:18.263Z,12.00
2018-09-24T16:13:52.024Z,11.90
2018-09-24T16:16:25.901Z,11.80
2018-09-24T16:18:59.821Z,11.80
2018-09-24T16:21:33.848Z,11.80
2018-09-24T16:24:07.559Z,11.80
2018-09-24T16:26:41.016Z,11.90
2018-09-24T16:29:14.859Z,11.80
2018-09-24T16:31:48.712Z,11.80
2018-09-24T16:34:22.737Z,11.70
2018-09-24T16:36:56.256Z,11.60
2018-09-24T16:39:29.871Z,11.50
2018-09-24T16:42:03.714Z,11.40
2018-09-24T16:44:37.607Z,11.30
2018-09-24T16:47:11.784Z,11.20
2018-09-24T16:49:45.782Z,11.10
2018-09-24T16:52:19.744Z,11.00
2018-09-24T16:54:53.203Z,11.00
2018-09-24T16:57:26.921Z,10.90
2018-09-24T17:00:00.931Z,10.90
2018-09-24T17:02:34.606Z,10.80
2018-09-24T17:05:08.202Z,10.70
2018-09-24T17:07:41.976Z,10.50
2018-09-24T17:10:15.864Z,10.50
2018-09-24T17:12:49.817Z,10.30
2018-09-24T17:15:23.432Z,10.20
2018-09-24T17:17:57.220Z,10.10
2018-09-24T17:20:30.918Z,10.10
2018-09-24T17:23:05.153Z,10.00
2018-09-24T17:25:38.868Z,9.80
2018-09-24T17:28:12.675Z,9.80
2018-09-24T17:30:46.589Z,9.70
2018-09-24T17:33:20.476Z,9.70
2018-09-24T17:35:54.558Z,9.70
2018-09-24T17:38:28.316Z,9.70
2018-09-24T17:41:01.933Z,9.60
2018-09-24T17:43:35.950Z,9.50
2018-09-24T17:46:09.842Z,9.50
2018-09-24T17:48:43.683Z,9.40
2018-09-24T17:51:17.406Z,9.40
2018-09-24T17:53:51.339Z,9.30
2018-09-24T17:56:25.308Z,9.30
2018-09-24T17:58:59.536Z,9.20
2018-09-24T18:01:33.432Z,9.10
2018-09-24T18:04:07.110Z,9.10
2018-09-24T18:06:41.091Z,9.10
2018-09-24T18:09:14.677Z,9.00
2018-09-24T18:11:48.488Z,9.00
2018-09-24T18:14:22.589Z,8.90
2018-09-24T18:16:56.159Z,8.90
2018-09-24T18:19:29.872Z,8.90
2018-09-24T18:22:03.738Z,8.90
2018-09-24T18:24:37.871Z,8.80
2018-09-24T18:27:11.807Z,8.70
2018-09-24T18:29:45.493Z,8.60
2018-09-24T18:32:19.120Z,8.50
2018-09-24T18:34:52.835Z,8.50
2018-09-24T18:37:26.931Z,8.50
2018-09-24T18:40:00.754Z,8.40
2018-09-24T18:42:34.755Z,8.40
2018-09-24T18:45:08.467Z,8.30
2018-09-24T18:47:42.534Z,8.30
2018-09-24T18:50:16.299Z,8.30
2018-09-24T18:52:50.391Z,8.20
2018-09-24T18:55:24.412Z,8.20
2018-09-24T18:57:58.353Z,8.20
2018-09-24T19:00:31.995Z,8.20
2018-09-24T19:03:05.573Z,8.20
2018-09-24T19:05:39.527Z,8.10
2018-09-24T19:08:13.207Z,8.10
2018-09-24T19:10:47.068Z,8.10
2018-09-24T19:13:20.562Z,8.00
2018-09-24T19:15:54.266Z,8.00
2018-09-24T19:18:28.046Z,7.90
2018-09-24T19:21:02.149Z,7.90
2018-09-24T19:23:35.935Z,7.90
2018-09-24T19:26:09.844Z,7.90
2018-09-24T19:28:43.603Z,7.80
2018-09-24T19:31:17.460Z,7.80
2018-09-24T19:33:51.011Z,7.80
2018-09-24T19:36:24.688Z,7.70
2018-09-24T19:38:59.044Z,7.70
2018-09-24T19:41:32.729Z,7.70
2018-09-24T19:44:06.519Z,7.60
2018-09-24T19:46:40.224Z,7.60
2018-09-24T19:49:14.103Z,7.70
2018-09-24T19:51:47.723Z,7.60
2018-09-24T19:54:21.686Z,7.60
2018-09-24T19:56:55.605Z,7.60
2018-09-24T19:59:29.316Z,7.60
2018-09-24T20:02:03.314Z,7.60
2018-09-24T20:04:36.872Z,7.50
2018-09-24T20:07:10.512Z,7.50
2018-09-24T20:09:44.254Z,7.40
2018-09-24T20:12:17.805Z,7.40
2018-09-24T20:14:51.692Z,7.50
2018-09-24T20:17:25.617Z,7.40
2018-09-24T20:19:59.416Z,6.70
2018-09-24T20:22:33.119Z,7.40
2018-09-24T20:25:06.637Z,7.40
2018-09-24T20:27:40.527Z,7.40
2018-09-24T20:30:14.785Z,7.40
2018-09-24T20:32:48.908Z,7.30
2018-09-24T20:35:22.727Z,7.20
2018-09-24T20:37:56.708Z,7.20
2018-09-24T20:40:31.407Z,7.20
2018-09-24T20:43:05.286Z,7.20
2018-09-24T20:45:39.080Z,7.20
2018-09-24T20:48:12.628Z,7.10
2018-09-24T20:50:46.407Z,7.10
2018-09-24T20:53:20.436Z,7.00
2018-09-24T20:55:54.727Z,7.00
2018-09-24T20:58:28.579Z,7.00
2018-09-24T21:01:02.162Z,7.00
2018-09-24T21:03:35.873Z,6.90
2018-09-24T21:06:09.471Z,6.90
2018-09-24T21:08:43.044Z,6.90
2018-09-24T21:11:17.146Z,6.90
2018-09-24T21:13:50.822Z,6.90
2018-09-24T21:16:24.810Z,6.80
2018-09-24T21:18:59.089Z,6.80
2018-09-24T21:21:32.776Z,6.70
2018-09-24T21:24:06.821Z,6.70
2018-09-24T21:26:40.748Z,6.70
2018-09-24T21:29:14.629Z,6.70
2018-09-24T21:31:48.415Z,6.60
2018-09-24T21:34:22.209Z,6.60
2018-09-24T21:36:55.948Z,6.60
2018-09-24T21:39:29.847Z,6.60
2018-09-24T21:42:03.898Z,6.60
2018-09-24T21:44:37.570Z,6.60
2018-09-24T21:47:11.368Z,6.50
2018-09-24T21:49:45.142Z,6.60
2018-09-24T21:52:19.248Z,6.50
2018-09-24T21:54:52.952Z,6.50
2018-09-24T21:57:26.735Z,6.50
2018-09-24T22:00:00.732Z,6.40
2018-09-24T22:02:34.535Z,6.50
2018-09-24T22:05:08.466Z,6.40
2018-09-24T22:07:42.211Z,6.40
2018-09-24T22:10:15.918Z,6.30
2018-09-24T22:12:49.643Z,6.30
2018-09-24T22:15:23.610Z,6.30
2018-09-24T22:17:57.569Z,6.30
2018-09-24T22:20:31.254Z,6.30
2018-09-24T22:23:04.956Z,6.30
2018-09-24T22:25:38.864Z,6.20
2018-09-24T22:28:12.730Z,6.20
2018-09-24T22:30:46.343Z,6.20
2018-09-24T22:33:20.207Z,6.10
2018-09-24T22:35:53.896Z,6.10
2018-09-24T22:38:27.657Z,6.10
2018-09-24T22:41:01.544Z,6.20
2018-09-24T22:43:35.489Z,6.20
2018-09-24T22:46:09.383Z,6.20
2018-09-24T22:48:43.338Z,6.20
2018-09-24T22:51:16.913Z,6.20
2018-09-24T22:53:51.251Z,6.10
2018-09-24T22:56:24.794Z,6.10
2018-09-24T22:58:58.486Z,6.10
2018-09-24T23:01:32.131Z,6.10
2018-09-24T23:04:06.176Z,6.10
2018-09-24T23:06:39.672Z,6.10
2018-09-24T23:09:14.288Z,6.00
2018-09-24T23:11:48.127Z,6.00
2018-09-24T23:14:22.060Z,6.00
2018-09-24T23:16:55.688Z,6.00
2018-09-24T23:19:29.399Z,6.10
2018-09-24T23:22:03.200Z,6.20
2018-09-24T23:24:36.968Z,6.10
2018-09-24T23:27:10.592Z,6.10
2018-09-24T23:29:44.196Z,6.20
2018-09-24T23:32:18.178Z,6.20
2018-09-24T23:34:51.964Z,6.10
2018-09-24T23:37:25.694Z,6.10
2018-09-24T23:39:59.717Z,6.00
2018-09-24T23:42:33.344Z,5.90
2018-09-24T23:45:07.104Z,5.90
2018-09-24T23:47:40.909Z,5.80
2018-09-24T23:50:15.020Z,5.80
2018-09-24T23:52:48.715Z,5.90
2018-09-24T23:55:22.493Z,5.90
2018-09-24T23:58:04.344Z,5.80
